Alcides Fernandez Airport


Codes: SKAD/ACD
Name: Alcides Fernandez Airport
City: Acandi
Country: Colombia
Elevation: 50 ft.
Wikipedia:

Photos at Alcides Fernandez Airport


   Photos courtesy of SpottingLog. You can add your own sightings and photos by signing up for a free trial today.



No photos found.

Weather at Alcides Fernandez Airport


Time (UTC)DescriptionTempratureWindCloud coverageVisibilityPressureHumidity
26-Jun-2024 00:00Overcast Clouds28°C0 mph, 100%10000m1011hPa90%
26-Jun-2024 03:00Light Rain27°C2 mph, SW93%10000m1011hPa91%
26-Jun-2024 06:00Light Rain26°C2 mph, SW73%10000m1011hPa91%
26-Jun-2024 09:00Light Rain24°C2 mph, SW80%10000m1011hPa92%
26-Jun-2024 12:00Light Rain24°C2 mph, SW90%10000m1012hPa95%
26-Jun-2024 15:00Light Rain25°C2 mph, SW100%10000m1013hPa94%
26-Jun-2024 18:00Light Rain28°C2 mph, NW100%10000m1011hPa79%
26-Jun-2024 21:00Light Rain29°C4 mph, N77%10000m1008hPa69%
27-Jun-2024 00:00Light Rain26°C2 mph, NW72%10000m1010hPa91%
27-Jun-2024 03:00Light Rain25°C2 mph, W96%10000m1012hPa93%
27-Jun-2024 06:00Light Rain24°C2 mph, SW86%10000m1011hPa94%
27-Jun-2024 09:00Light Rain24°C2 mph, SW80%10000m1011hPa95%
27-Jun-2024 12:00Broken Clouds24°C0 mph, SW82%10000m1012hPa93%
27-Jun-2024 15:00Overcast Clouds30°C2 mph, N93%10000m1012hPa65%
27-Jun-2024 18:00Light Rain28°C2 mph, N89%10000m1010hPa84%
27-Jun-2024 21:00Moderate Rain28°C2 mph, NW60%9742m1009hPa90%
28-Jun-2024 00:00Moderate Rain25°C2 mph, W79%7751m1010hPa92%
28-Jun-2024 03:00Moderate Rain24°C2 mph, SW100%5066m1012hPa97%
28-Jun-2024 06:00Heavy Intensity Rain24°C2 mph, SW100%10000m1012hPa98%
28-Jun-2024 09:00Moderate Rain23°C2 mph, S100%7465m1011hPa98%
28-Jun-2024 12:00Moderate Rain23°C2 mph, S100%6233m1013hPa98%
28-Jun-2024 15:00Moderate Rain23°C0 mph, SW100%10000m1014hPa97%
28-Jun-2024 18:00Light Rain24°C2 mph, NW100%10000m1013hPa96%
28-Jun-2024 21:00Light Rain26°C0 mph, NW100%10000m1010hPa82%
29-Jun-2024 00:00Overcast Clouds25°C0 mph, N100%10000m1012hPa91%
29-Jun-2024 03:00Light Rain24°C2 mph, SW100%10000m1014hPa93%
29-Jun-2024 06:00Overcast Clouds23°C2 mph, SW100%10000m1013hPa92%
29-Jun-2024 09:00Overcast Clouds23°C2 mph, SW100%10000m1012hPa90%
29-Jun-2024 12:00Overcast Clouds24°C2 mph, SW91%10000m1013hPa84%
29-Jun-2024 15:00Broken Clouds29°C2 mph, NE68%10000m1014hPa64%
29-Jun-2024 18:00Light Rain28°C2 mph, N78%10000m1012hPa81%
29-Jun-2024 21:00Moderate Rain27°C2 mph, NW100%10000m1011hPa90%
30-Jun-2024 00:00Light Rain25°C2 mph, W100%10000m1012hPa92%
30-Jun-2024 03:00Light Rain24°C2 mph, SW100%8237m1014hPa94%
30-Jun-2024 06:00Light Rain24°C2 mph, SW100%10000m1013hPa94%
30-Jun-2024 09:00Overcast Clouds23°C2 mph, SW100%10000m1012hPa95%
30-Jun-2024 12:00Overcast Clouds24°C2 mph, SW98%10000m1013hPa93%
30-Jun-2024 15:00Broken Clouds29°C4 mph, E76%10000m1013hPa68%
30-Jun-2024 18:00Broken Clouds30°C4 mph, NE84%10000m1011hPa65%
30-Jun-2024 21:00Light Rain29°C4 mph, N71%10000m1009hPa71%